createdAt,value
2023-04-16T00:01:35.752Z,21.74
2023-04-16T00:04:03.111Z,21.75
2023-04-16T00:06:30.419Z,21.76
2023-04-16T00:08:57.293Z,21.75
2023-04-16T00:11:24.133Z,21.77
2023-04-16T00:13:51.041Z,21.76
2023-04-16T00:16:17.905Z,21.76
2023-04-16T00:18:44.730Z,21.76
2023-04-16T00:21:11.685Z,21.79
2023-04-16T00:23:38.499Z,21.80
2023-04-16T00:26:05.295Z,21.78
2023-04-16T00:28:32.167Z,21.77
2023-04-16T00:30:59.087Z,21.78
2023-04-16T00:33:26.104Z,21.77
2023-04-16T00:35:52.942Z,21.79
2023-04-16T00:38:19.740Z,21.76
2023-04-16T00:40:46.584Z,21.77
2023-04-16T00:43:21.884Z,21.75
2023-04-16T00:45:48.802Z,21.76
2023-04-16T00:48:15.578Z,21.79
2023-04-16T00:50:42.622Z,21.84
2023-04-16T00:53:09.421Z,21.77
2023-04-16T00:55:36.326Z,21.82
2023-04-16T00:58:03.842Z,21.83
2023-04-16T01:00:30.669Z,21.85
2023-04-16T01:02:57.742Z,21.81
2023-04-16T01:05:24.726Z,21.85
2023-04-16T01:07:52.128Z,21.85
2023-04-16T01:10:19.049Z,21.87
2023-04-16T01:12:45.828Z,21.85
2023-04-16T01:15:12.756Z,21.86
2023-04-16T01:17:39.524Z,21.85
2023-04-16T01:20:06.794Z,21.83
2023-04-16T01:22:33.577Z,21.85
2023-04-16T01:25:00.615Z,21.83
2023-04-16T01:27:27.317Z,21.81
2023-04-16T01:29:54.154Z,21.80
2023-04-16T01:32:21.006Z,21.83
2023-04-16T01:34:47.728Z,21.82
2023-04-16T01:37:14.573Z,21.83
2023-04-16T01:39:41.353Z,21.83
2023-04-16T01:42:08.139Z,21.85
2023-04-16T01:44:34.932Z,21.82
2023-04-16T01:47:01.810Z,21.84
2023-04-16T01:49:29.046Z,21.83
2023-04-16T01:51:55.767Z,21.82
2023-04-16T01:54:22.543Z,21.78
2023-04-16T01:56:49.284Z,21.84
2023-04-16T01:59:16.023Z,21.84
2023-04-16T02:01:42.838Z,21.82
2023-04-16T02:04:10.099Z,21.84
2023-04-16T02:06:36.960Z,21.85
2023-04-16T02:09:03.825Z,21.85
2023-04-16T02:11:30.644Z,21.83
2023-04-16T02:13:57.516Z,21.82
2023-04-16T02:16:24.354Z,21.82
2023-04-16T02:18:51.072Z,21.83
2023-04-16T02:21:17.936Z,21.79
2023-04-16T02:23:44.706Z,21.82
2023-04-16T02:26:11.504Z,21.83
2023-04-16T02:28:38.375Z,21.80
2023-04-16T02:31:05.409Z,21.79
2023-04-16T02:33:32.169Z,21.82
2023-04-16T02:35:59.161Z,21.85
2023-04-16T02:38:25.961Z,21.81
2023-04-16T02:40:52.678Z,21.81
2023-04-16T02:43:19.495Z,21.82
2023-04-16T02:45:46.315Z,21.84
2023-04-16T02:48:13.103Z,21.85
2023-04-16T02:50:39.989Z,21.84
2023-04-16T02:53:06.819Z,21.82
2023-04-16T02:55:33.641Z,21.81
2023-04-16T02:58:00.471Z,21.80
2023-04-16T03:00:27.259Z,21.83
2023-04-16T03:02:54.140Z,21.82
2023-04-16T03:05:21.062Z,21.78
2023-04-16T03:07:47.978Z,21.81
2023-04-16T03:10:14.741Z,21.81
2023-04-16T03:12:41.508Z,21.79
2023-04-16T03:15:08.740Z,21.81
2023-04-16T03:17:35.559Z,21.81
2023-04-16T03:20:02.392Z,21.80
2023-04-16T03:22:29.132Z,21.80
2023-04-16T03:24:55.940Z,21.81
2023-04-16T03:27:22.766Z,21.84
2023-04-16T03:29:49.614Z,21.82
2023-04-16T03:32:16.366Z,21.83
2023-04-16T03:34:43.180Z,21.82
2023-04-16T03:37:09.895Z,21.81
2023-04-16T03:39:36.745Z,21.84
2023-04-16T03:42:03.712Z,21.80
2023-04-16T03:44:30.455Z,21.79
2023-04-16T03:46:57.291Z,21.82
2023-04-16T03:49:24.186Z,21.82
2023-04-16T03:51:51.100Z,21.82
2023-04-16T03:54:18.410Z,21.83
2023-04-16T03:56:45.971Z,21.82
2023-04-16T03:59:12.719Z,21.83
2023-04-16T04:01:39.568Z,21.78
2023-04-16T04:04:06.481Z,21.79
2023-04-16T04:06:33.332Z,21.78
2023-04-16T04:09:00.113Z,21.82
2023-04-16T04:11:26.832Z,21.81
2023-04-16T04:13:53.582Z,21.80
2023-04-16T04:16:20.338Z,21.79
2023-04-16T04:18:47.246Z,21.82
2023-04-16T04:21:13.990Z,21.79
2023-04-16T04:23:40.802Z,21.79
2023-04-16T04:26:07.784Z,21.83
2023-04-16T04:28:34.779Z,21.82
2023-04-16T04:31:01.677Z,21.84
2023-04-16T04:33:28.788Z,21.80
2023-04-16T04:35:55.551Z,21.85
2023-04-16T04:38:22.557Z,21.84
2023-04-16T04:40:49.336Z,21.84
2023-04-16T04:43:16.114Z,21.85
2023-04-16T04:45:42.953Z,21.84
2023-04-16T04:48:09.762Z,21.88
2023-04-16T04:50:36.771Z,21.87
2023-04-16T04:53:03.539Z,21.85
2023-04-16T04:55:30.260Z,21.86
2023-04-16T04:57:57.088Z,21.85
2023-04-16T05:00:23.914Z,21.87
2023-04-16T05:02:50.807Z,21.84
2023-04-16T05:05:17.794Z,21.85
2023-04-16T05:07:44.639Z,21.84
2023-04-16T05:10:14.390Z,21.86
2023-04-16T05:12:41.217Z,21.83
2023-04-16T05:15:08.627Z,21.87
2023-04-16T05:17:35.318Z,21.87
2023-04-16T05:20:02.110Z,21.88
2023-04-16T05:22:29.245Z,21.86
2023-04-16T05:24:56.010Z,21.88
2023-04-16T05:27:23.134Z,21.89
2023-04-16T05:29:49.975Z,21.93
2023-04-16T05:32:16.798Z,21.92
2023-04-16T05:34:43.656Z,21.92
2023-04-16T05:37:10.434Z,21.93
2023-04-16T05:39:37.161Z,21.94
2023-04-16T05:42:04.035Z,21.90
2023-04-16T05:44:30.763Z,21.90
2023-04-16T05:46:57.467Z,21.90
2023-04-16T05:49:24.159Z,21.90
2023-04-16T05:51:53.298Z,21.92
2023-04-16T05:54:20.047Z,21.96
2023-04-16T05:56:47.429Z,21.96
2023-04-16T05:59:14.219Z,21.96
2023-04-16T06:01:41.189Z,21.98
2023-04-16T06:04:08.002Z,21.97
2023-04-16T06:06:34.791Z,21.99
2023-04-16T06:09:01.609Z,21.99
2023-04-16T06:11:29.971Z,21.98
2023-04-16T06:13:56.640Z,21.98
2023-04-16T06:16:23.414Z,21.98
2023-04-16T06:18:50.174Z,21.98
2023-04-16T06:21:17.004Z,22.02
2023-04-16T06:23:43.750Z,22.01
2023-04-16T06:26:11.518Z,22.00
2023-04-16T06:28:38.256Z,22.01
2023-04-16T06:31:05.057Z,22.00
2023-04-16T06:33:31.769Z,22.01
2023-04-16T06:35:58.448Z,22.00
2023-04-16T06:38:25.121Z,22.02
2023-04-16T06:40:51.829Z,22.01
2023-04-16T06:43:18.598Z,21.99
2023-04-16T06:45:45.356Z,22.02
2023-04-16T06:48:12.095Z,22.03
2023-04-16T06:50:38.821Z,22.00
2023-04-16T06:53:05.586Z,22.01
2023-04-16T06:55:32.361Z,22.00
2023-04-16T06:57:59.116Z,22.01
2023-04-16T07:00:25.939Z,22.05
2023-04-16T07:02:52.792Z,22.07
2023-04-16T07:05:19.644Z,22.06
2023-04-16T07:07:46.365Z,22.07
2023-04-16T07:10:13.128Z,22.08
2023-04-16T07:12:39.899Z,22.07
2023-04-16T07:15:07.569Z,22.10
2023-04-16T07:17:34.357Z,22.11
2023-04-16T07:20:01.214Z,22.11
2023-04-16T07:22:27.953Z,22.13
2023-04-16T07:24:54.659Z,22.14
2023-04-16T07:27:21.347Z,22.11
2023-04-16T07:29:48.084Z,22.11
2023-04-16T07:32:15.633Z,22.13
2023-04-16T07:34:42.597Z,22.16
2023-04-16T07:37:09.357Z,22.16
2023-04-16T07:39:36.088Z,22.15
2023-04-16T07:42:02.867Z,22.16
2023-04-16T07:44:29.850Z,22.15
2023-04-16T07:46:56.649Z,22.13
2023-04-16T07:49:23.502Z,22.15
2023-04-16T07:51:50.280Z,22.12
2023-04-16T07:54:17.043Z,22.15
2023-04-16T07:56:43.782Z,22.15
2023-04-16T07:59:21.907Z,22.17
2023-04-16T08:01:50.162Z,22.15
2023-04-16T08:04:17.014Z,22.15
2023-04-16T08:06:43.900Z,22.17
2023-04-16T08:09:10.867Z,22.18
2023-04-16T08:11:37.788Z,22.14
2023-04-16T08:14:04.550Z,22.19
2023-04-16T08:16:31.304Z,22.17
2023-04-16T08:18:58.095Z,22.18
2023-04-16T08:21:24.903Z,22.18
2023-04-16T08:23:51.565Z,22.22
2023-04-16T08:26:18.392Z,22.22
2023-04-16T08:28:45.130Z,22.24
2023-04-16T08:31:11.966Z,22.23
2023-04-16T08:33:38.965Z,22.22
2023-04-16T08:36:05.998Z,22.23
2023-04-16T08:38:32.674Z,22.23
2023-04-16T08:41:01.737Z,22.21
2023-04-16T08:43:29.341Z,22.23
2023-04-16T08:45:56.112Z,22.27
2023-04-16T08:48:22.917Z,22.24
2023-04-16T08:50:52.220Z,22.26
2023-04-16T08:53:19.375Z,22.27
2023-04-16T08:55:49.611Z,22.23
2023-04-16T08:58:19.891Z,22.23
2023-04-16T09:00:47.531Z,22.26
2023-04-16T09:03:14.354Z,22.21
2023-04-16T09:05:42.030Z,22.20
2023-04-16T09:08:09.011Z,22.25
2023-04-16T09:10:35.792Z,22.21
2023-04-16T09:13:02.485Z,22.27
2023-04-16T09:15:29.259Z,22.26
2023-04-16T09:17:55.991Z,22.28
2023-04-16T09:20:22.803Z,22.32
2023-04-16T09:22:49.629Z,22.24
2023-04-16T09:25:16.357Z,22.24
2023-04-16T09:27:43.177Z,22.26
2023-04-16T09:30:26.141Z,22.33
2023-04-16T09:32:53.720Z,22.32
2023-04-16T09:35:20.621Z,22.30
2023-04-16T09:37:57.426Z,22.35
2023-04-16T09:40:25.070Z,22.33
2023-04-16T09:42:52.296Z,22.33
2023-04-16T09:45:19.083Z,22.35
2023-04-16T09:47:46.000Z,22.30
2023-04-16T09:50:18.199Z,22.33
2023-04-16T09:52:48.050Z,22.30
2023-04-16T09:55:14.746Z,22.27
2023-04-16T09:57:41.424Z,22.30
2023-04-16T10:00:09.233Z,22.31
2023-04-16T10:02:36.334Z,22.34
2023-04-16T10:05:03.504Z,22.33
2023-04-16T10:07:34.051Z,22.33
2023-04-16T10:10:00.855Z,22.33
2023-04-16T10:12:27.535Z,22.34
2023-04-16T10:14:54.294Z,22.34
2023-04-16T10:17:21.381Z,22.28
2023-04-16T10:19:48.111Z,22.29
2023-04-16T10:22:14.917Z,22.18
2023-04-16T10:24:41.647Z,22.18
2023-04-16T10:27:08.356Z,22.25
2023-04-16T10:29:35.032Z,22.21
2023-04-16T10:32:01.845Z,22.16
2023-04-16T10:34:28.525Z,22.15
2023-04-16T10:36:55.276Z,22.15
2023-04-16T10:39:27.301Z,22.13
2023-04-16T10:42:13.134Z,22.13
2023-04-16T10:44:45.307Z,22.11
2023-04-16T10:47:13.144Z,22.09
2023-04-16T10:49:40.268Z,22.10
2023-04-16T10:52:11.328Z,22.11
2023-04-16T10:54:38.103Z,22.15
2023-04-16T10:57:09.874Z,22.13
2023-04-16T10:59:37.509Z,22.17
2023-04-16T11:02:09.035Z,22.17
2023-04-16T11:04:37.203Z,22.23
2023-04-16T11:07:06.621Z,22.19
2023-04-16T11:09:45.637Z,22.24
2023-04-16T11:12:22.483Z,22.21
2023-04-16T11:15:11.432Z,22.24
2023-04-16T11:17:39.791Z,22.25
2023-04-16T11:20:17.723Z,22.26
2023-04-16T11:22:51.234Z,22.28
2023-04-16T11:25:21.827Z,22.36
2023-04-16T11:27:49.127Z,22.35
2023-04-16T11:30:15.939Z,22.38
2023-04-16T11:32:43.732Z,22.38
2023-04-16T11:35:14.975Z,22.37
2023-04-16T11:37:41.953Z,22.38
2023-04-16T11:40:09.153Z,22.42
2023-04-16T11:42:36.805Z,22.40
2023-04-16T11:45:03.982Z,22.41
2023-04-16T11:47:31.165Z,22.47
2023-04-16T11:49:58.384Z,22.46
2023-04-16T11:52:32.110Z,22.54
2023-04-16T11:54:59.201Z,22.56
2023-04-16T11:57:29.431Z,22.51
2023-04-16T12:00:01.742Z,22.54
2023-04-16T12:02:40.070Z,22.50
2023-04-16T12:05:26.029Z,22.48
2023-04-16T12:07:52.752Z,22.49
2023-04-16T12:10:19.558Z,22.45
2023-04-16T12:12:46.254Z,22.48
2023-04-16T12:15:13.028Z,22.41
2023-04-16T12:17:39.816Z,22.42
2023-04-16T12:20:10.702Z,22.42
2023-04-16T12:22:38.546Z,22.42
2023-04-16T12:25:06.619Z,22.39
2023-04-16T12:27:52.215Z,22.42
2023-04-16T12:30:21.594Z,22.41
2023-04-16T12:32:49.459Z,22.41
2023-04-16T12:35:32.389Z,22.40
2023-04-16T12:37:59.470Z,22.41
2023-04-16T12:40:26.406Z,22.39
2023-04-16T12:42:53.206Z,22.40
2023-04-16T12:45:20.014Z,22.39
2023-04-16T12:47:47.225Z,22.35
2023-04-16T12:50:14.050Z,22.30
2023-04-16T12:52:40.761Z,22.25
2023-04-16T12:55:07.792Z,22.26
2023-04-16T12:57:34.519Z,22.24
2023-04-16T13:00:01.274Z,22.22
2023-04-16T13:02:28.166Z,22.20
2023-04-16T13:04:54.947Z,22.25
2023-04-16T13:07:21.736Z,22.29
2023-04-16T13:09:48.429Z,22.29
2023-04-16T13:12:15.109Z,22.36
2023-04-16T13:14:42.805Z,22.39
2023-04-16T13:17:11.329Z,22.50
2023-04-16T13:19:38.031Z,22.55
2023-04-16T13:22:04.800Z,22.64
2023-04-16T13:24:31.594Z,22.64
2023-04-16T13:26:58.370Z,22.60
2023-04-16T13:29:25.122Z,22.62
2023-04-16T13:34:18.553Z,22.64
2023-04-16T13:36:45.307Z,22.59
2023-04-16T13:39:12.351Z,22.60
2023-04-16T13:41:39.372Z,22.51
2023-04-16T13:44:06.623Z,22.48
2023-04-16T13:46:33.806Z,22.50
2023-04-16T13:49:00.750Z,22.46
2023-04-16T13:51:27.763Z,22.45
2023-04-16T13:53:54.990Z,22.46
2023-04-16T13:56:22.219Z,22.43
2023-04-16T13:58:48.934Z,22.43
2023-04-16T14:01:16.077Z,22.39
2023-04-16T14:03:47.023Z,22.39
2023-04-16T14:06:14.109Z,22.36
2023-04-16T14:08:41.185Z,22.38
2023-04-16T14:11:08.303Z,22.40
2023-04-16T14:16:05.699Z,22.42
2023-04-16T14:18:32.588Z,22.45
2023-04-16T14:20:59.435Z,22.52
2023-04-16T14:23:29.665Z,22.57
2023-04-16T14:25:56.877Z,22.54
2023-04-16T14:28:23.786Z,22.48
2023-04-16T14:30:51.022Z,22.42
2023-04-16T14:33:17.785Z,22.41
2023-04-16T14:35:49.913Z,22.36
2023-04-16T14:38:16.780Z,22.38
2023-04-16T14:40:44.068Z,22.38
2023-04-16T14:43:11.021Z,22.37
2023-04-16T14:45:37.806Z,22.35
2023-04-16T14:48:08.191Z,22.32
2023-04-16T14:50:35.377Z,22.31
2023-04-16T14:53:02.471Z,22.35
2023-04-16T14:55:29.890Z,22.33
2023-04-16T14:57:56.726Z,22.33
2023-04-16T15:00:26.861Z,22.37
2023-04-16T15:02:54.729Z,22.39
2023-04-16T15:05:21.892Z,22.41
2023-04-16T15:07:48.765Z,22.45
2023-04-16T15:10:15.851Z,22.51
2023-04-16T15:12:42.494Z,22.51
2023-04-16T15:15:09.911Z,22.57
2023-04-16T15:17:37.251Z,22.57
2023-04-16T15:20:04.664Z,22.55
2023-04-16T15:22:31.685Z,22.54
2023-04-16T15:24:58.684Z,22.50
2023-04-16T15:27:25.582Z,22.47
2023-04-16T15:29:52.360Z,22.47
2023-04-16T15:32:19.330Z,22.44
2023-04-16T15:34:46.158Z,22.44
2023-04-16T15:37:13.487Z,22.44
2023-04-16T15:39:40.419Z,22.42
2023-04-16T15:42:08.715Z,22.39
2023-04-16T15:44:35.706Z,22.37
2023-04-16T15:47:04.519Z,22.36
2023-04-16T15:49:31.275Z,22.33
2023-04-16T15:51:58.951Z,22.33
2023-04-16T15:54:27.207Z,22.34
2023-04-16T15:56:53.998Z,22.34
2023-04-16T15:59:20.882Z,22.33
2023-04-16T16:01:47.835Z,22.33
2023-04-16T16:04:14.637Z,22.32
2023-04-16T16:06:41.839Z,22.30
2023-04-16T16:09:08.992Z,22.28
2023-04-16T16:11:36.658Z,22.28
2023-04-16T16:14:03.617Z,22.31
2023-04-16T16:16:30.582Z,22.27
2023-04-16T16:18:57.344Z,22.27
2023-04-16T16:21:24.335Z,22.27
2023-04-16T16:23:51.106Z,22.27
2023-04-16T16:26:18.225Z,22.28
2023-04-16T16:28:45.075Z,22.25
2023-04-16T16:31:11.910Z,22.23
2023-04-16T16:33:40.291Z,22.24
2023-04-16T16:36:10.482Z,22.24
2023-04-16T16:38:37.486Z,22.21
2023-04-16T16:41:04.509Z,22.15
2023-04-16T16:43:32.306Z,22.12
2023-04-16T16:45:59.023Z,22.08
2023-04-16T16:48:25.775Z,22.06
2023-04-16T16:50:52.584Z,22.06
2023-04-16T16:53:19.439Z,22.06
2023-04-16T16:55:46.169Z,22.07
2023-04-16T16:58:12.973Z,22.09
2023-04-16T17:00:39.836Z,22.13
2023-04-16T17:03:06.851Z,22.16
2023-04-16T17:05:33.654Z,22.17
2023-04-16T17:08:00.548Z,22.16
2023-04-16T17:10:27.323Z,22.19
2023-04-16T17:12:54.133Z,22.22
2023-04-16T17:15:21.865Z,22.21
2023-04-16T17:17:48.902Z,22.21
2023-04-16T17:20:19.072Z,22.19
2023-04-16T17:22:45.795Z,22.19
2023-04-16T17:25:12.838Z,22.21
2023-04-16T17:27:39.637Z,22.21
2023-04-16T17:30:07.478Z,22.16
2023-04-16T17:32:34.523Z,22.18
2023-04-16T17:35:02.157Z,22.18
2023-04-16T17:37:29.221Z,22.21
2023-04-16T17:39:56.457Z,22.20
2023-04-16T17:42:23.953Z,22.20
2023-04-16T17:44:50.657Z,22.19
2023-04-16T17:47:17.387Z,22.21
2023-04-16T17:49:44.146Z,22.19
2023-04-16T17:52:10.916Z,22.17
2023-04-16T17:54:37.730Z,22.18
2023-04-16T17:57:04.425Z,22.17
2023-04-16T17:59:31.237Z,22.17
2023-04-16T18:01:58.182Z,22.15
2023-04-16T18:04:25.302Z,22.09
2023-04-16T18:06:52.249Z,22.13
2023-04-16T18:09:18.965Z,22.14
2023-04-16T18:11:45.677Z,22.13
2023-04-16T18:14:12.588Z,22.15
2023-04-16T18:16:39.354Z,22.14
2023-04-16T18:19:06.182Z,22.13
2023-04-16T18:21:33.003Z,22.13
2023-04-16T18:23:59.761Z,22.14
2023-04-16T18:26:29.627Z,22.13
2023-04-16T18:28:56.877Z,22.10
2023-04-16T18:31:23.858Z,22.10
2023-04-16T18:33:57.591Z,22.09
2023-04-16T18:36:25.447Z,22.09
2023-04-16T18:39:00.228Z,22.11
2023-04-16T18:41:28.954Z,22.09
2023-04-16T18:43:55.938Z,22.13
2023-04-16T18:46:22.775Z,22.12
2023-04-16T18:48:49.674Z,22.12
2023-04-16T18:51:16.804Z,22.10
2023-04-16T18:53:44.394Z,22.08
2023-04-16T18:56:11.347Z,22.07
2023-04-16T18:58:38.134Z,22.08
2023-04-16T19:01:04.908Z,22.07
2023-04-16T19:03:31.798Z,22.07
2023-04-16T19:05:58.563Z,22.07
2023-04-16T19:08:25.328Z,22.10
2023-04-16T19:10:52.035Z,22.10
2023-04-16T19:13:18.685Z,22.09
2023-04-16T19:15:45.481Z,22.10
2023-04-16T19:18:12.196Z,22.07
2023-04-16T19:20:38.915Z,22.06
2023-04-16T19:23:05.778Z,22.08
2023-04-16T19:25:32.680Z,22.08
2023-04-16T19:27:59.561Z,22.07
2023-04-16T19:30:26.388Z,22.13
2023-04-16T19:32:55.136Z,22.11
2023-04-16T19:35:22.508Z,22.11
2023-04-16T19:37:49.241Z,22.11
2023-04-16T19:40:16.010Z,22.11
2023-04-16T19:42:42.777Z,22.11
2023-04-16T19:45:09.692Z,22.09
2023-04-16T19:47:36.654Z,22.11
2023-04-16T19:50:03.525Z,22.12
2023-04-16T19:52:30.345Z,22.11
2023-04-16T19:54:57.111Z,22.10
2023-04-16T19:57:23.929Z,22.09
2023-04-16T19:59:50.635Z,22.11
2023-04-16T20:02:17.321Z,22.10
2023-04-16T20:04:44.145Z,22.12
2023-04-16T20:07:10.892Z,22.13
2023-04-16T20:09:37.689Z,22.12
2023-04-16T20:12:04.570Z,22.11
2023-04-16T20:14:31.271Z,22.10
2023-04-16T20:16:58.220Z,22.14
2023-04-16T20:19:25.021Z,22.11
2023-04-16T20:21:51.970Z,22.11
2023-04-16T20:24:18.774Z,22.13
2023-04-16T20:26:45.497Z,22.12
2023-04-16T20:29:12.475Z,22.09
2023-04-16T20:31:39.256Z,22.13
2023-04-16T20:34:06.032Z,22.15
2023-04-16T20:36:32.863Z,22.13
2023-04-16T20:38:59.599Z,22.12
2023-04-16T20:41:26.358Z,22.11
2023-04-16T20:43:53.133Z,22.15
2023-04-16T20:46:20.833Z,22.15
2023-04-16T20:48:49.278Z,22.14
2023-04-16T20:51:16.121Z,22.17
2023-04-16T20:53:42.886Z,22.15
2023-04-16T20:56:09.727Z,22.13
2023-04-16T20:58:36.525Z,22.15
2023-04-16T21:01:03.248Z,22.13
2023-04-16T21:03:30.131Z,22.16
2023-04-16T21:05:57.100Z,22.15
2023-04-16T21:08:23.970Z,22.13
2023-04-16T21:10:50.783Z,22.16
2023-04-16T21:13:17.501Z,22.15
2023-04-16T21:15:44.762Z,22.15
2023-04-16T21:18:11.541Z,22.14
2023-04-16T21:20:38.903Z,22.12
2023-04-16T21:23:05.768Z,22.09
2023-04-16T21:25:32.636Z,22.13
2023-04-16T21:27:59.332Z,22.11
2023-04-16T21:30:26.135Z,22.12
2023-04-16T21:32:52.992Z,22.13
2023-04-16T21:35:19.941Z,22.13
2023-04-16T21:37:46.805Z,22.12
2023-04-16T21:40:13.663Z,22.11
2023-04-16T21:42:40.365Z,22.12
2023-04-16T21:45:08.670Z,22.09
2023-04-16T21:47:35.632Z,22.10
2023-04-16T21:50:02.540Z,22.06
2023-04-16T21:52:29.355Z,22.10
2023-04-16T21:54:56.106Z,22.10
2023-04-16T21:57:22.853Z,22.11
2023-04-16T21:59:49.654Z,22.10
2023-04-16T22:02:16.525Z,22.10
2023-04-16T22:04:43.397Z,22.13
2023-04-16T22:07:10.152Z,22.12
2023-04-16T22:09:36.962Z,22.14
2023-04-16T22:12:04.244Z,22.12
2023-04-16T22:14:30.965Z,22.13
2023-04-16T22:16:57.916Z,22.13
2023-04-16T22:19:24.776Z,22.12
2023-04-16T22:21:51.609Z,22.14
2023-04-16T22:24:18.392Z,22.16
2023-04-16T22:26:45.127Z,22.13
2023-04-16T22:29:12.076Z,22.13
2023-04-16T22:31:39.012Z,22.15
2023-04-16T22:34:05.820Z,22.11
2023-04-16T22:36:32.582Z,22.10
2023-04-16T22:38:59.365Z,22.14
2023-04-16T22:41:26.079Z,22.12
2023-04-16T22:43:52.812Z,22.11
2023-04-16T22:46:19.653Z,22.09
2023-04-16T22:48:46.525Z,22.09
2023-04-16T22:51:13.386Z,22.13
2023-04-16T22:53:40.110Z,22.11
2023-04-16T22:56:07.141Z,22.11
2023-04-16T22:58:33.922Z,22.12
2023-04-16T23:01:00.648Z,22.12
2023-04-16T23:03:27.473Z,22.12
2023-04-16T23:05:54.378Z,22.11
2023-04-16T23:08:21.222Z,22.13
2023-04-16T23:10:48.055Z,22.14
2023-04-16T23:13:14.863Z,22.11
2023-04-16T23:15:41.708Z,22.11
2023-04-16T23:18:08.578Z,22.11
2023-04-16T23:20:35.420Z,22.10
2023-04-16T23:23:02.143Z,22.11
2023-04-16T23:25:28.901Z,22.10
2023-04-16T23:27:55.674Z,22.09
2023-04-16T23:30:22.763Z,22.09
2023-04-16T23:32:49.646Z,22.09
2023-04-16T23:35:16.507Z,22.09
2023-04-16T23:37:43.301Z,22.09
2023-04-16T23:40:10.593Z,22.11
2023-04-16T23:42:37.449Z,22.09
2023-04-16T23:45:04.522Z,22.12
2023-04-16T23:47:31.381Z,22.06
2023-04-16T23:49:58.210Z,22.06
2023-04-16T23:52:24.974Z,22.05
2023-04-16T23:54:51.749Z,22.07
2023-04-16T23:57:20.546Z,22.06
2023-04-16T23:59:47.407Z,22.01
